Casnovia, Michigan
Current Conditions -  °F | °C
As of 1:12 AM on Wednesday 22 Oct 2014 (Local Time) from KFFX Reporting Station
Clear Clear  
Wind Chill: 32°   Ceiling: Unl
Heat Index: 37°   Visibility: 10mi
Dew Point: 33°   Wind: 6mph
Humidity: 86%   Direction: 90°E
Pressure: 30.28"   Gusts: NA
Location:  43.23°N, 85.79°W
Report Text: KFFX 220512Z AUTO 09005KT 10SM CLR 03/01 A3028 RMK AO2 T00270006
Loading
Personal Weather Stations






























Interactive Weather Map
Tropical Storm Tracking
New forecast layout! Learn more

10-Day Weather Forecast

Advertisements
Track Severe Weather on mobile